Time;durP1;ratioP1;P1;durP2;ratioP2;P2;SDS_P1;SDS_P2;PMS_P1;PMS_P2;Temp;Humidity;BMP_temperature;BMP_pressure;BME280_temperature;BME280_humidity;BME280_pressure;Samples;Min_cycle;Max_cycle;Signal;HPM_P1;HPM_P2
2021/11/22 00:01:54;;;;;;;12.07;8.67;;;;;;;5.03;100.00;97925.31;5135488;27;20221;-62
2021/11/22 00:04:22;;;;;;;12.43;9.23;;;;;;;5.03;100.00;97930.56;5134933;27;20685;-62
2021/11/22 00:06:49;;;;;;;13.20;9.97;;;;;;;5.04;100.00;97928.75;5134987;27;20696;-62
2021/11/22 00:09:15;;;;;;;11.77;8.93;;;;;;;5.06;100.00;97930.38;5135149;27;20218;-62
2021/11/22 00:11:42;;;;;;;12.30;8.90;;;;;;;5.10;100.00;97931.06;5135126;27;20237;-61
2021/11/22 00:14:09;;;;;;;12.30;8.97;;;;;;;5.13;100.00;97936.16;5134989;27;20211;-62
2021/11/22 00:16:35;;;;;;;12.93;9.00;;;;;;;5.16;100.00;97946.47;5134986;27;20211;-62
2021/11/22 00:19:04;;;;;;;13.27;9.27;;;;;;;5.19;100.00;97931.44;5134979;27;20219;-62
2021/11/22 00:21:30;;;;;;;12.80;8.77;;;;;;;5.23;100.00;97945.22;5123613;27;20217;-62
2021/11/22 00:23:57;;;;;;;12.10;9.07;;;;;;;5.27;100.00;97947.66;5132617;27;20212;-62
2021/11/22 00:26:23;;;;;;;11.23;9.17;;;;;;;5.28;100.00;97944.09;5134978;27;20215;-62
2021/11/22 00:28:50;;;;;;;11.40;9.27;;;;;;;5.28;100.00;97944.09;5134084;27;20241;-62
2021/11/22 00:31:16;;;;;;;13.40;10.00;;;;;;;5.30;100.00;97938.75;5134683;27;20238;-62
2021/11/22 00:33:44;;;;;;;13.33;9.13;;;;;;;5.30;100.00;97950.09;5134371;27;20696;-62
2021/11/22 00:36:13;;;;;;;13.00;9.20;;;;;;;5.31;100.00;97946.53;5134361;27;20301;-62
2021/11/22 00:38:39;;;;;;;12.37;8.90;;;;;;;5.35;100.00;97953.34;5134931;27;20303;-62
2021/11/22 00:41:07;;;;;;;11.83;8.70;;;;;;;5.32;100.00;97952.66;5134789;27;20217;-62
2021/11/22 00:43:33;;;;;;;12.53;9.23;;;;;;;5.33;100.00;97955.19;5134452;27;20213;-62
2021/11/22 00:46:00;;;;;;;12.17;8.83;;;;;;;5.33;100.00;97960.44;5132616;27;20218;-62
2021/11/22 00:48:27;;;;;;;13.20;9.57;;;;;;;5.33;100.00;97960.44;5134409;27;20214;-62
2021/11/22 00:50:55;;;;;;;13.13;9.23;;;;;;;5.34;100.00;97967.38;5134356;27;20243;-62
2021/11/22 00:53:23;;;;;;;12.90;9.17;;;;;;;5.34;100.00;97967.38;5134315;27;21552;-62
2021/11/22 00:55:50;;;;;;;13.97;9.70;;;;;;;5.37;100.00;97967.19;5134323;27;20220;-62
2021/11/22 00:58:17;;;;;;;14.23;10.07;;;;;;;5.42;100.00;97980.91;5133971;27;20223;-62
2021/11/22 01:00:43;;;;;;;12.17;8.80;;;;;;;5.46;100.00;97974.59;5133924;27;20210;-62
2021/11/22 01:03:10;;;;;;;11.10;8.87;;;;;;;5.46;100.00;97985.09;5133859;27;20208;-62
2021/11/22 01:05:36;;;;;;;14.17;9.60;;;;;;;5.47;100.00;97986.78;5134155;27;20212;-62
2021/11/22 01:08:04;;;;;;;12.37;9.13;;;;;;;5.46;100.00;97990.31;5134221;27;20312;-62
2021/11/22 01:10:33;;;;;;;15.00;10.90;;;;;;;5.49;100.00;97990.16;5133760;27;20229;-62
2021/11/22 01:13:00;;;;;;;13.07;10.23;;;;;;;5.48;100.00;97991.09;5132373;27;20213;-62
2021/11/22 01:15:26;;;;;;;14.37;9.77;;;;;;;5.48;100.00;97991.09;5134085;27;20220;-62
2021/11/22 01:17:55;;;;;;;14.37;10.83;;;;;;;5.48;100.00;97996.31;5133733;27;20216;-62
2021/11/22 01:20:28;;;;;;;15.00;10.53;;;;;;;5.50;100.00;97999.72;5134119;27;20213;-62
2021/11/22 01:22:55;;;;;;;14.87;11.40;;;;;;;5.47;100.00;97994.63;5133912;27;20215;-62
2021/11/22 01:25:22;;;;;;;13.87;10.40;;;;;;;5.51;100.00;98006.63;5133853;27;20239;-62
2021/11/22 01:27:51;;;;;;;15.13;10.57;;;;;;;5.53;100.00;97996.94;5133648;27;20218;-62
2021/11/22 01:30:19;;;;;;;13.73;10.00;;;;;;;5.51;100.00;98006.63;5133394;28;20239;-62
2021/11/22 01:32:46;;;;;;;15.17;10.80;;;;;;;5.48;100.00;98012.06;5133497;28;20212;-62
2021/11/22 01:35:13;;;;;;;16.70;11.37;;;;;;;5.44;100.00;98010.50;5133571;28;20218;-62
2021/11/22 01:37:40;;;;;;;16.57;11.33;;;;;;;5.42;100.00;98006.25;5122367;28;20229;-62
2021/11/22 01:40:09;;;;;;;18.83;11.10;;;;;;;5.38;100.00;98007.38;5133453;27;20208;-62
2021/11/22 01:42:37;;;;;;;18.37;12.40;;;;;;;5.35;100.00;98005.75;5137359;27;20207;-62
2021/11/22 01:45:08;;;;;;;18.83;11.67;;;;;;;5.30;100.00;98004.25;5137814;27;20699;-63
2021/11/22 01:47:35;;;;;;;15.63;11.67;;;;;;;5.27;100.00;98007.91;5138112;27;20220;-62
2021/11/22 01:50:01;;;;;;;18.67;12.17;;;;;;;5.24;100.00;98013.28;5138318;27;20212;-62
2021/11/22 01:52:28;;;;;;;18.83;12.80;;;;;;;5.19;100.00;98004.81;5137880;27;20235;-62
2021/11/22 01:54:55;;;;;;;19.30;12.70;;;;;;;5.08;100.00;98006.28;5138003;27;20209;-62
2021/11/22 01:57:21;;;;;;;18.30;12.37;;;;;;;4.94;100.00;98009.56;5138001;27;20217;-62
2021/11/22 01:59:48;;;;;;;19.73;12.90;;;;;;;4.86;100.00;98006.47;5137504;27;20708;-62
2021/11/22 02:02:16;;;;;;;21.57;13.37;;;;;;;4.87;100.00;98004.69;5137679;27;20217;-62
2021/11/22 02:04:43;;;;;;;23.27;14.17;;;;;;;4.86;100.00;98006.47;5135713;27;20659;-61
2021/11/22 02:07:10;;;;;;;26.60;15.63;;;;;;;4.83;100.00;98006.59;5137212;27;20219;-62
2021/11/22 02:09:36;;;;;;;24.87;13.93;;;;;;;4.78;100.00;98006.00;5137439;27;20214;-61
2021/11/22 02:12:03;;;;;;;24.50;15.60;;;;;;;4.80;100.00;98013.75;5137386;27;20239;-61
2021/11/22 02:14:30;;;;;;;24.13;15.20;;;;;;;4.81;100.00;98008.47;5137207;27;20215;-61
2021/11/22 02:16:57;;;;;;;23.67;15.17;;;;;;;4.79;100.00;98015.56;5137538;27;20218;-61
2021/11/22 02:19:24;;;;;;;25.70;15.37;;;;;;;4.74;100.00;98014.91;5137349;27;20217;-61
2021/11/22 02:21:52;;;;;;;23.90;15.33;;;;;;;4.69;100.00;98014.28;5137224;27;20210;-61
2021/11/22 02:24:19;;;;;;;27.60;15.77;;;;;;;4.69;100.00;98016.03;5136919;27;20681;-61
2021/11/22 02:26:46;;;;;;;29.63;16.60;;;;;;;4.63;100.00;98016.34;5137273;27;20220;-61
2021/11/22 02:29:12;;;;;;;28.90;16.53;;;;;;;4.62;100.00;98012.88;5136841;27;20235;-61
2021/11/22 02:31:40;;;;;;;28.20;16.13;;;;;;;4.61;100.00;98015.56;5135087;27;20237;-61
2021/11/22 02:34:07;;;;;;;23.97;15.73;;;;;;;4.57;100.00;98022.72;5135019;27;20228;-61
2021/11/22 02:36:34;;;;;;;26.93;15.37;;;;;;;4.54;100.00;98017.66;5137159;27;20215;-62
2021/11/22 02:39:04;;;;;;;24.80;15.03;;;;;;;4.62;100.00;98018.13;5137096;27;20213;-61
2021/11/22 02:41:31;;;;;;;27.07;17.27;;;;;;;4.65;100.00;98022.38;5136834;27;20328;-61
2021/11/22 02:43:58;;;;;;;25.13;15.27;;;;;;;4.67;100.00;98026.59;5136672;27;20217;-61
2021/11/22 02:46:26;;;;;;;27.40;16.83;;;;;;;4.69;100.00;98027.38;5136915;27;20216;-61
2021/11/22 02:48:52;;;;;;;27.93;16.83;;;;;;;4.70;100.00;98036.91;5136577;27;20226;-61
2021/11/22 02:51:19;;;;;;;26.57;16.20;;;;;;;4.77;100.00;98027.00;5128107;27;20239;-61
2021/11/22 02:53:45;;;;;;;25.90;15.93;;;;;;;4.79;100.00;98033.03;5133802;27;20216;-61
2021/11/22 02:56:14;;;;;;;24.00;15.60;;;;;;;4.76;100.00;98036.63;5134624;27;20672;-60
2021/11/22 02:58:41;;;;;;;25.10;15.60;;;;;;;4.71;100.00;98043.84;5136749;27;20297;-61
2021/11/22 03:01:11;;;;;;;24.53;15.80;;;;;;;4.73;100.00;98043.78;5136576;27;20222;-60
2021/11/22 03:03:38;;;;;;;25.60;16.00;;;;;;;4.74;100.00;98040.22;5134399;27;20223;-60
2021/11/22 03:06:08;;;;;;;27.07;16.43;;;;;;;4.76;100.00;98039.25;5136472;27;20577;-61
2021/11/22 03:08:35;;;;;;;25.07;15.00;;;;;;;4.75;100.00;98042.78;5136351;27;20223;-60
2021/11/22 03:11:02;;;;;;;25.33;15.50;;;;;;;4.81;100.00;98049.50;5136415;27;20234;-60
2021/11/22 03:13:30;;;;;;;24.20;14.83;;;;;;;4.84;100.00;98051.97;5136033;27;20211;-61
2021/11/22 03:15:56;;;;;;;25.40;14.83;;;;;;;4.84;100.00;98055.44;5136289;27;20212;-60
2021/11/22 03:18:23;;;;;;;21.80;14.40;;;;;;;4.87;100.00;98055.28;5135933;27;20672;-61
2021/11/22 03:20:49;;;;;;;23.97;15.40;;;;;;;4.89;100.00;98063.91;5135766;27;20221;-60
2021/11/22 03:23:16;;;;;;;25.07;14.63;;;;;;;4.89;100.00;98052.63;5134229;27;20224;-60
2021/11/22 03:25:42;;;;;;;25.67;14.40;;;;;;;4.90;100.00;98060.38;5136193;27;20578;-61
2021/11/22 03:28:11;;;;;;;22.77;15.17;;;;;;;4.89;100.00;98058.69;5135537;27;20223;-61
2021/11/22 03:30:40;;;;;;;26.27;15.60;;;;;;;4.87;100.00;98059.66;5135812;27;20284;-61
2021/11/22 03:33:06;;;;;;;29.83;16.97;;;;;;;4.83;100.00;98058.13;5133730;27;20237;-60
2021/11/22 03:35:33;;;;;;;30.13;17.50;;;;;;;4.81;100.00;98062.59;5135678;27;20665;-61
2021/11/22 03:37:59;;;;;;;28.57;16.63;;;;;;;4.80;100.00;98067.00;5135942;27;20299;-61
2021/11/22 03:40:27;;;;;;;29.33;17.13;;;;;;;4.81;100.00;98070.44;5135679;27;20212;-61
2021/11/22 03:43:01;;;;;;;28.97;17.17;;;;;;;4.77;100.00;98071.53;5135773;27;20607;-60
2021/11/22 03:45:28;;;;;;;32.83;18.23;;;;;;;4.80;100.00;98074.84;5135479;27;20686;-61
2021/11/22 03:47:56;;;;;;;31.67;17.53;;;;;;;4.76;100.00;98075.91;5134197;27;20207;-61
2021/11/22 03:50:22;;;;;;;30.60;17.30;;;;;;;4.73;100.00;98083.03;5135550;27;20236;-61
2021/11/22 03:52:49;;;;;;;30.50;17.20;;;;;;;4.74;100.00;98080.38;5135564;27;20271;-60
2021/11/22 03:55:16;;;;;;;31.00;17.60;;;;;;;4.76;100.00;98078.50;5135314;27;20220;-60
2021/11/22 03:57:42;;;;;;;35.63;18.97;;;;;;;4.82;100.00;98083.47;5135147;27;20205;-61
2021/11/22 04:00:10;;;;;;;31.63;17.83;;;;;;;4.83;100.00;98077.31;5135316;27;20545;-60
2021/11/22 04:02:37;;;;;;;29.23;17.17;;;;;;;4.87;100.00;98084.09;5134994;27;20208;-61
2021/11/22 04:05:06;;;;;;;34.60;18.37;;;;;;;4.80;100.00;98085.31;5134396;27;20286;-61
2021/11/22 04:07:33;;;;;;;30.20;16.87;;;;;;;4.85;100.00;98083.34;5128741;27;20553;-61
2021/11/22 04:09:59;;;;;;;31.50;17.67;;;;;;;4.84;100.00;98086.84;5134969;27;20217;-61
2021/11/22 04:12:26;;;;;;;31.07;17.43;;;;;;;4.87;100.00;98089.34;5135383;27;20237;-61
2021/11/22 04:14:52;;;;;;;30.93;17.40;;;;;;;4.79;100.00;98088.00;5133445;27;20217;-61
2021/11/22 04:17:19;;;;;;;32.70;17.30;;;;;;;4.81;100.00;98092.25;5135097;27;20210;-61
2021/11/22 04:19:46;;;;;;;29.00;16.97;;;;;;;4.82;100.00;98090.50;5134638;27;20209;-61
2021/11/22 04:22:14;;;;;;;33.87;17.37;;;;;;;4.77;100.00;98090.69;5134873;27;20601;-61
2021/11/22 04:24:41;;;;;;;32.57;16.47;;;;;;;4.80;100.00;98101.03;5135024;27;20215;-61
2021/11/22 04:27:10;;;;;;;32.07;16.83;;;;;;;4.81;100.00;98097.47;5134690;27;20616;-60
2021/11/22 04:29:38;;;;;;;31.07;17.00;;;;;;;4.78;100.00;98096.78;5134899;27;20247;-61
2021/11/22 04:32:05;;;;;;;32.23;17.67;;;;;;;4.82;100.00;98104.41;5132184;27;20241;-60
2021/11/22 04:34:33;;;;;;;30.63;17.40;;;;;;;4.83;100.00;98103.47;5135015;27;20664;-61
2021/11/22 04:37:00;;;;;;;29.97;16.57;;;;;;;4.84;100.00;98106.97;5134522;27;20664;-60
2021/11/22 04:39:28;;;;;;;30.77;16.33;;;;;;;4.86;100.00;98112.97;5134842;27;20212;-61
2021/11/22 04:41:54;;;;;;;29.13;16.30;;;;;;;4.85;100.00;98120.00;5132919;27;20212;-60
2021/11/22 04:44:21;;;;;;;27.57;16.30;;;;;;;4.86;100.00;98113.81;5134618;27;20216;-61
2021/11/22 04:46:47;;;;;;;25.13;14.37;;;;;;;4.82;100.00;98130.59;5134324;27;20215;-60
2021/11/22 04:49:14;;;;;;;25.30;14.70;;;;;;;4.81;100.00;98128.91;5134583;27;20214;-60
2021/11/22 04:51:40;;;;;;;28.80;15.63;;;;;;;4.81;100.00;98128.91;5134253;27;20242;-60
2021/11/22 04:54:07;;;;;;;28.93;15.80;;;;;;;4.83;100.00;98137.53;5134548;27;20217;-61
2021/11/22 04:56:35;;;;;;;27.73;15.23;;;;;;;4.82;100.00;98138.44;5134434;27;20206;-60
2021/11/22 04:59:01;;;;;;;25.50;15.63;;;;;;;4.84;100.00;98139.22;5134080;27;20220;-61
2021/11/22 05:01:28;;;;;;;28.97;15.93;;;;;;;4.85;100.00;98135.69;5134250;27;20219;-61
2021/11/22 05:03:55;;;;;;;25.87;14.93;;;;;;;4.86;100.00;98142.63;5133974;27;20557;-61
2021/11/22 05:06:21;;;;;;;23.87;14.70;;;;;;;4.86;100.00;98142.63;5132196;27;20692;-60
2021/11/22 05:08:48;;;;;;;26.63;14.63;;;;;;;4.86;100.00;98150.47;5134285;27;20215;-61
2021/11/22 05:11:14;;;;;;;26.10;14.33;;;;;;;4.85;100.00;98150.56;5133724;27;20214;-60
2021/11/22 05:13:42;;;;;;;26.00;15.37;;;;;;;4.89;100.00;98152.94;5133785;27;20721;-61
2021/11/22 05:16:09;;;;;;;25.33;15.00;;;;;;;4.85;100.00;98146.19;5133692;27;20230;-61
2021/11/22 05:18:35;;;;;;;22.93;14.07;;;;;;;4.87;100.00;98152.19;5134088;27;20310;-61
2021/11/22 05:21:02;;;;;;;23.73;13.57;;;;;;;4.85;100.00;98153.16;5129520;27;20212;-60
2021/11/22 05:23:28;;;;;;;25.40;14.40;;;;;;;4.88;100.00;98158.28;5133813;27;20227;-60
2021/11/22 05:25:55;;;;;;;25.40;14.90;;;;;;;4.89;100.00;98152.94;5134171;27;20580;-60
2021/11/22 05:28:22;;;;;;;21.80;14.80;;;;;;;4.86;100.00;98165.34;5133730;27;20592;-61
2021/11/22 05:30:49;;;;;;;24.90;14.23;;;;;;;4.91;100.00;98160.75;5133989;28;20216;-60
2021/11/22 05:33:17;;;;;;;23.30;13.67;;;;;;;4.90;100.00;98175.59;5131741;28;20237;-60
2021/11/22 05:35:44;;;;;;;21.50;13.43;;;;;;;4.98;100.00;98176.09;5133673;28;20676;-60
2021/11/22 05:38:10;;;;;;;22.80;14.00;;;;;;;4.92;100.00;98175.53;5133855;28;20302;-60
2021/11/22 05:40:37;;;;;;;24.83;13.83;;;;;;;4.91;100.00;98177.31;5133755;28;20218;-60
2021/11/22 05:43:04;;;;;;;20.37;11.67;;;;;;;4.88;100.00;98176.59;5133848;28;20218;-60
2021/11/22 05:45:30;;;;;;;20.83;12.50;;;;;;;4.81;100.00;98183.88;5133786;28;20219;-59
2021/11/22 05:47:58;;;;;;;19.00;11.93;;;;;;;4.72;100.00;98175.59;5133685;28;20552;-59
2021/11/22 05:50:25;;;;;;;20.93;12.83;;;;;;;4.72;100.00;98179.06;5133562;28;20208;-59
2021/11/22 05:52:52;;;;;;;23.43;12.83;;;;;;;4.79;100.00;98184.88;5133617;28;20241;-60
2021/11/22 05:55:33;;;;;;;21.37;12.90;;;;;;;4.77;100.00;98190.16;5133777;28;20212;-60
2021/11/22 05:58:00;;;;;;;19.97;12.13;;;;;;;4.81;100.00;98185.63;5131843;28;20227;-60
2021/11/22 06:00:26;;;;;;;19.37;12.10;;;;;;;4.85;100.00;98184.59;5133249;28;20222;-60
2021/11/22 06:02:53;;;;;;;21.70;13.00;;;;;;;4.91;100.00;98190.41;5133235;28;20291;-60
2021/11/22 06:05:21;;;;;;;20.23;12.20;;;;;;;4.91;100.00;98192.16;5133738;28;20689;-60
2021/11/22 06:07:48;;;;;;;19.47;12.07;;;;;;;4.93;100.00;98190.31;5133670;28;20210;-58
2021/11/22 06:10:14;;;;;;;20.83;12.87;;;;;;;4.91;100.00;98193.03;5133271;28;20223;-60
2021/11/22 06:12:41;;;;;;;20.27;12.07;;;;;;;4.93;100.00;98201.66;5133484;28;20580;-60
2021/11/22 06:15:09;;;;;;;19.77;11.67;;;;;;;4.91;100.00;98202.63;5133507;28;20206;-61
2021/11/22 06:17:35;;;;;;;21.07;12.17;;;;;;;4.90;100.00;98204.41;5133331;28;20217;-61
2021/11/22 06:20:02;;;;;;;19.10;11.33;;;;;;;4.91;100.00;98206.13;5133427;28;20218;-61
2021/11/22 06:22:30;;;;;;;20.23;11.90;;;;;;;5.02;100.00;98214.31;5133401;28;20217;-61
2021/11/22 06:24:56;;;;;;;16.30;10.63;;;;;;;4.99;100.00;98211.84;5131893;28;20389;-60
2021/11/22 06:27:24;;;;;;;17.17;11.30;;;;;;;5.00;100.00;98212.72;5134624;27;20207;-60
2021/11/22 06:29:51;;;;;;;15.70;10.20;;;;;;;5.01;100.00;98220.47;5137233;27;20630;-61
2021/11/22 06:32:18;;;;;;;14.80;10.50;;;;;;;5.01;100.00;98225.72;5136780;27;20794;-61
2021/11/22 06:34:44;;;;;;;16.80;10.60;;;;;;;5.01;100.00;98219.66;5136881;27;20214;-61
2021/11/22 06:37:12;;;;;;;17.77;11.13;;;;;;;4.99;100.00;98232.81;5134489;27;20218;-61
2021/11/22 06:39:40;;;;;;;16.70;9.67;;;;;;;4.97;100.00;98236.41;5137097;27;20210;-60
2021/11/22 06:42:07;;;;;;;14.87;9.80;;;;;;;5.02;100.00;98237.88;5136683;27;20219;-61
2021/11/22 06:44:33;;;;;;;14.97;9.57;;;;;;;5.07;100.00;98241.16;5136948;27;20211;-61
2021/11/22 06:47:00;;;;;;;13.03;8.83;;;;;;;5.11;100.00;98253.19;5136572;27;20215;-61
2021/11/22 06:49:27;;;;;;;14.87;9.63;;;;;;;5.09;100.00;98249.81;5136761;27;20218;-60
2021/11/22 06:51:53;;;;;;;13.77;9.10;;;;;;;5.12;100.00;98259.31;5134985;27;20207;-60
2021/11/22 06:54:20;;;;;;;13.60;8.70;;;;;;;5.12;100.00;98265.38;5136538;27;20235;-61
2021/11/22 06:56:48;;;;;;;13.23;8.03;;;;;;;5.14;100.00;98260.91;5136577;27;20212;-60
2021/11/22 06:59:14;;;;;;;12.27;8.30;;;;;;;5.05;100.00;98268.31;5136672;27;20211;-60
2021/11/22 07:01:41;;;;;;;13.27;9.00;;;;;;;5.03;100.00;98267.56;5136615;27;20358;-60
2021/11/22 07:04:08;;;;;;;15.53;10.50;;;;;;;4.96;100.00;98268.75;5136547;27;20206;-60
2021/11/22 07:06:34;;;;;;;13.73;9.03;;;;;;;5.13;100.00;98267.06;5136573;27;20214;-60
2021/11/22 07:09:01;;;;;;;12.33;8.87;;;;;;;5.11;100.00;98266.28;5136453;27;20215;-59
2021/11/22 07:11:27;;;;;;;13.93;9.93;;;;;;;5.11;100.00;98274.16;5136227;27;20220;-60
2021/11/22 07:13:56;;;;;;;15.37;9.53;;;;;;;5.13;100.00;98282.78;5136148;27;20241;-60
2021/11/22 07:16:23;;;;;;;15.23;8.93;;;;;;;5.18;100.00;98280.81;5134573;27;20219;-60
2021/11/22 07:18:49;;;;;;;14.53;8.97;;;;;;;5.22;100.00;98292.00;5136104;27;20668;-60
2021/11/22 07:21:16;;;;;;;13.63;9.20;;;;;;;5.27;100.00;98296.13;5136161;27;20592;-60
2021/11/22 07:23:42;;;;;;;14.73;9.07;;;;;;;5.16;100.00;98303.63;5136333;27;20215;-60
2021/11/22 07:26:09;;;;;;;14.10;8.60;;;;;;;5.20;100.00;98304.34;5135990;27;20215;-60
2021/11/22 07:28:35;;;;;;;16.57;10.30;;;;;;;5.18;100.00;98307.00;5136014;27;20596;-59
2021/11/22 07:31:03;;;;;;;13.60;9.63;;;;;;;5.23;100.00;98320.75;5136133;27;20209;-60
2021/11/22 07:33:30;;;;;;;13.83;9.20;;;;;;;5.17;100.00;98320.16;5135982;27;20242;-60
2021/11/22 07:35:57;;;;;;;12.80;9.10;;;;;;;5.16;100.00;98319.34;5136167;27;20219;-60
2021/11/22 07:38:23;;;;;;;14.03;9.50;;;;;;;5.17;100.00;98326.28;5135830;27;20219;-60
2021/11/22 07:40:51;;;;;;;13.23;8.83;;;;;;;5.20;100.00;98320.88;5135564;27;20600;-60
2021/11/22 07:43:18;;;;;;;15.40;9.87;;;;;;;5.20;100.00;98326.13;5134122;27;20215;-60
2021/11/22 07:45:45;;;;;;;14.67;10.03;;;;;;;5.22;100.00;98321.69;5135743;27;20224;-60
2021/11/22 07:48:14;;;;;;;15.43;10.73;;;;;;;5.24;100.00;98325.06;5135346;27;20703;-60
2021/11/22 07:50:42;;;;;;;14.40;9.83;;;;;;;5.30;100.00;98329.19;5135275;27;20297;-60
2021/11/22 07:53:08;;;;;;;12.43;8.30;;;;;;;5.32;100.00;98330.81;5135476;27;20242;-60
2021/11/22 07:55:35;;;;;;;13.17;8.27;;;;;;;5.38;100.00;98335.78;5135245;27;20213;-61
2021/11/22 07:58:01;;;;;;;13.20;8.80;;;;;;;5.31;100.00;98344.84;5135488;27;20223;-61
2021/11/22 08:00:29;;;;;;;14.23;8.73;;;;;;;5.31;100.00;98342.22;5135478;27;20208;-61
2021/11/22 08:02:56;;;;;;;13.60;8.40;;;;;;;5.35;100.00;98351.66;5135281;27;20300;-61
2021/11/22 08:05:25;;;;;;;11.33;7.53;;;;;;;5.36;100.00;98358.59;5135351;27;20217;-61
2021/11/22 08:07:54;;;;;;;14.80;8.90;;;;;;;5.38;100.00;98351.50;5134261;27;20698;-61
2021/11/22 08:10:29;;;;;;;15.00;8.80;;;;;;;5.37;100.00;98355.03;5134666;27;20251;-61
2021/11/22 08:12:57;;;;;;;13.53;8.43;;;;;;;5.41;100.00;98351.38;5135276;27;20233;-61
2021/11/22 08:15:25;;;;;;;14.23;8.87;;;;;;;5.37;100.00;98351.59;5135167;27;20221;-61
2021/11/22 08:17:52;;;;;;;14.63;9.17;;;;;;;5.41;100.00;98361.88;5135108;27;20211;-61
2021/11/22 08:20:22;;;;;;;13.73;8.90;;;;;;;5.41;100.00;98361.88;5134751;27;20212;-61
2021/11/22 08:22:51;;;;;;;16.93;9.53;;;;;;;5.44;100.00;98364.31;5135139;27;20248;-61
2021/11/22 08:25:20;;;;;;;14.23;9.70;;;;;;;5.49;100.00;98372.00;5134727;27;20212;-61
2021/11/22 08:27:47;;;;;;;12.67;8.17;;;;;;;5.51;100.00;98386.72;5134526;27;20213;-60
2021/11/22 08:30:16;;;;;;;16.77;10.03;;;;;;;5.49;100.00;98385.94;5134623;27;20239;-60
2021/11/22 08:32:44;;;;;;;13.83;9.00;;;;;;;5.56;100.00;98391.78;5131401;27;20238;-61
2021/11/22 08:35:12;;;;;;;13.67;8.40;;;;;;;5.54;100.00;98393.59;5131904;27;20739;-61
2021/11/22 08:37:41;;;;;;;14.13;9.47;;;;;;;5.49;100.00;98393.81;5133623;27;20251;-61
2021/11/22 08:40:12;;;;;;;14.00;8.63;;;;;;;5.54;100.00;98399.69;5130972;27;20216;-60
2021/11/22 08:42:39;;;;;;;14.50;10.03;;;;;;;5.45;100.00;98402.72;5133065;27;20245;-61
2021/11/22 08:45:07;;;;;;;15.33;8.87;;;;;;;5.51;100.00;98402.44;5132349;27;20218;-60
2021/11/22 08:47:34;;;;;;;12.07;8.90;;;;;;;5.57;100.00;98404.78;5131544;27;20713;-60
2021/11/22 08:50:01;;;;;;;13.47;8.73;;;;;;;5.55;100.00;98411.06;5125430;27;20212;-60
2021/11/22 08:52:27;;;;;;;12.87;8.90;;;;;;;5.66;100.00;98409.63;5123924;27;20247;-60
2021/11/22 08:54:54;;;;;;;12.43;8.83;;;;;;;5.65;100.00;98412.31;5131612;27;20243;-60
2021/11/22 08:57:22;;;;;;;11.27;8.47;;;;;;;5.71;100.00;98412.91;5132438;27;20215;-61
2021/11/22 08:59:49;;;;;;;14.30;8.83;;;;;;;5.69;100.00;98399.00;5132156;27;20208;-61
2021/11/22 09:02:16;;;;;;;14.57;9.23;;;;;;;5.73;100.00;98426.78;5129448;27;20642;-60
2021/11/22 09:04:43;;;;;;;12.40;8.53;;;;;;;5.74;100.00;98425.03;5129081;27;20224;-60
2021/11/22 09:07:09;;;;;;;14.77;10.30;;;;;;;5.74;100.00;98423.25;5132242;27;20590;-61
2021/11/22 09:09:36;;;;;;;15.33;9.77;;;;;;;5.75;100.00;98430.19;5130812;27;20702;-60
2021/11/22 09:12:03;;;;;;;16.07;10.03;;;;;;;5.78;100.00;98430.06;5132206;27;20297;-60
2021/11/22 09:14:31;;;;;;;17.50;9.50;;;;;;;5.90;100.00;98440.03;5132122;27;20242;-60
2021/11/22 09:16:57;;;;;;;14.13;9.50;;;;;;;5.87;100.00;98434.91;5131535;27;20219;-60
2021/11/22 09:19:24;;;;;;;12.80;9.50;;;;;;;5.91;100.00;98441.72;5131986;27;20216;-61
2021/11/22 09:21:50;;;;;;;14.00;9.40;;;;;;;5.96;100.00;98445.00;5132224;27;20584;-60
2021/11/22 09:24:17;;;;;;;13.87;8.87;;;;;;;5.93;100.00;98452.16;5131736;27;20764;-60
2021/11/22 09:26:43;;;;;;;12.97;8.97;;;;;;;5.94;100.00;98459.09;5128527;27;20219;-60
2021/11/22 09:29:10;;;;;;;13.43;8.97;;;;;;;5.95;100.00;98458.19;5129622;27;20727;-60
2021/11/22 09:31:38;;;;;;;12.10;9.03;;;;;;;5.94;100.00;98457.34;5131699;27;20220;-61
2021/11/22 09:34:05;;;;;;;13.37;9.10;;;;;;;6.01;100.00;98457.91;5131343;28;20236;-60
2021/11/22 09:36:31;;;;;;;13.37;8.93;;;;;;;6.02;100.00;98465.69;5132116;28;20218;-60
2021/11/22 09:38:58;;;;;;;13.57;8.63;;;;;;;6.02;100.00;98468.31;5131877;28;20583;-60
2021/11/22 09:41:27;;;;;;;12.93;9.60;;;;;;;5.95;100.00;98463.41;5130861;28;20224;-60
2021/11/22 09:43:54;;;;;;;13.33;9.10;;;;;;;5.98;100.00;98469.38;5131526;28;20217;-60
2021/11/22 09:46:21;;;;;;;13.27;9.07;;;;;;;6.01;100.00;98469.25;5131456;28;20302;-60
2021/11/22 09:48:49;;;;;;;14.60;8.97;;;;;;;6.03;100.00;98467.41;5132636;28;20296;-60
2021/11/22 09:51:16;;;;;;;11.87;9.37;;;;;;;6.02;100.00;98465.69;5132367;28;20213;-60
2021/11/22 09:53:42;;;;;;;14.10;9.47;;;;;;;6.10;100.00;98471.44;5131984;28;20310;-60
2021/11/22 09:56:10;;;;;;;15.57;9.80;;;;;;;6.13;100.00;98470.44;5131459;28;20219;-60
2021/11/22 09:58:38;;;;;;;13.83;9.97;;;;;;;6.14;100.00;98474.78;5132313;28;20213;-60
2021/11/22 10:01:09;;;;;;;14.90;10.07;;;;;;;6.15;100.00;98474.72;5132603;27;20614;-60
2021/11/22 10:03:35;;;;;;;17.03;10.30;;;;;;;6.19;100.00;98471.03;5135823;27;20615;-60
2021/11/22 10:06:04;;;;;;;19.87;10.63;;;;;;;6.28;100.00;98467.97;5135007;27;20209;-60
2021/11/22 10:08:39;;;;;;;16.60;9.67;;;;;;;6.33;100.00;98470.38;5136556;27;20307;-60
2021/11/22 10:11:08;;;;;;;13.70;10.00;;;;;;;6.34;100.00;98472.94;5136322;27;20209;-60
2021/11/22 10:13:36;;;;;;;13.77;10.20;;;;;;;6.38;100.00;98479.75;5133607;27;20265;-60
2021/11/22 10:16:21;;;;;;;13.87;9.70;;;;;;;6.38;100.00;98485.00;5135945;27;20292;-60
2021/11/22 10:18:49;;;;;;;15.50;10.07;;;;;;;6.37;100.00;98478.06;5136377;27;20220;-59
2021/11/22 10:21:20;;;;;;;15.10;9.87;;;;;;;6.34;100.00;98488.69;5134544;27;20216;-60
2021/11/22 10:23:49;;;;;;;16.80;10.73;;;;;;;6.28;100.00;98483.72;5133389;27;20575;-60
2021/11/22 10:26:17;;;;;;;12.37;9.63;;;;;;;6.31;100.00;98488.84;5135982;27;20212;-60
2021/11/22 10:28:46;;;;;;;13.07;9.97;;;;;;;6.26;100.00;98485.56;5135859;27;20240;-60
2021/11/22 10:31:15;;;;;;;14.30;9.20;;;;;;;6.25;100.00;98485.63;5135955;27;20211;-60
2021/11/22 10:33:43;;;;;;;12.63;9.50;;;;;;;6.27;100.00;98489.88;5135909;27;20233;-60
2021/11/22 10:36:12;;;;;;;13.97;9.10;;;;;;;6.21;100.00;98492.78;5135881;27;20451;-60
2021/11/22 10:38:43;;;;;;;18.23;9.40;;;;;;;6.19;100.00;98489.41;5135918;27;20209;-60
2021/11/22 10:41:11;;;;;;;15.83;10.03;;;;;;;6.07;100.00;98489.97;5133602;27;20244;-60
2021/11/22 10:43:49;;;;;;;13.93;9.33;;;;;;;6.11;100.00;98491.50;5135665;27;20212;-60
2021/11/22 10:46:17;;;;;;;11.93;9.33;;;;;;;6.16;100.00;98497.41;5132881;27;20579;-60
2021/11/22 10:48:49;;;;;;;11.83;8.47;;;;;;;6.21;100.00;98498.03;5132585;27;20216;-60
2021/11/22 10:51:20;;;;;;;13.33;8.70;;;;;;;6.12;100.00;98493.19;5131549;27;20216;-61
2021/11/22 10:53:49;;;;;;;14.23;8.80;;;;;;;6.22;100.00;98494.50;5133878;27;20245;-60
2021/11/22 10:56:18;;;;;;;13.70;8.63;;;;;;;6.22;100.00;98499.75;5125701;27;20216;-60
2021/11/22 10:58:52;;;;;;;11.93;8.20;;;;;;;6.21;100.00;98503.28;5115944;27;20213;-60
2021/11/22 11:01:38;;;;;;;11.27;8.00;;;;;;;6.22;100.00;98501.53;5134058;27;20230;-60
2021/11/22 11:04:14;;;;;;;12.17;8.10;;;;;;;6.19;100.00;98494.66;5134603;27;20209;-60
2021/11/22 11:06:44;;;;;;;13.60;8.33;;;;;;;6.20;100.00;98504.22;5134082;27;20223;-60
2021/11/22 11:09:18;;;;;;;11.27;8.20;;;;;;;6.18;100.00;98503.41;5133715;27;20222;-60
2021/11/22 11:11:46;;;;;;;14.63;8.33;;;;;;;6.24;100.00;98505.75;5134699;27;20200;-60
2021/11/22 11:14:15;;;;;;;11.53;7.60;;;;;;;6.24;100.00;98508.38;5131959;27;20250;-60
2021/11/22 11:16:44;;;;;;;13.40;7.97;;;;;;;6.20;100.00;98511.22;5133555;27;20209;-59
2021/11/22 11:19:13;;;;;;;10.47;7.67;;;;;;;6.18;100.00;98523.59;5120643;27;20220;-60
2021/11/22 11:21:42;;;;;;;15.63;8.07;;;;;;;6.15;100.00;98514.06;5134453;27;20207;-60
2021/11/22 11:24:09;;;;;;;13.43;7.63;;;;;;;6.08;100.00;98520.53;5133284;27;20216;-61